GJAKE EGBO-ANY
Flight info
| Callsign | GJAKE |
|---|---|
| Flight time | N/A |
| Altitude | 3000 |
| Route | EGBO |
| Aircraft | SF50/L-SDE2E3FGHIJ1RWXY/LB1 |
Departure
| Time | 2026-04-30 20:48 |
|---|---|
| Airport | Wolverhampton Halfpenny Green Airport (EGBO) |
Arrival
| Time | N/A |
|---|---|
| Airport | ANY |
| Time | Latitude | Longitude | Altitude | Speed | Heading |
|---|---|---|---|---|---|
| 2026-04-30 20:41 | 52.51318 | -2.26078 | 289 ft | 0 kts | 239° |
| 2026-04-30 20:42 | 52.51322 | -2.26097 | 289 ft | 3 kts | 307° |
| 2026-04-30 20:42 | 52.51365 | -2.26099 | 292 ft | 4 kts | 7° |
| 2026-04-30 20:43 | 52.51396 | -2.26093 | 288 ft | 6 kts | 8° |
| 2026-04-30 20:43 | 52.51439 | -2.26088 | 287 ft | 7 kts | 352° |
| 2026-04-30 20:43 | 52.51474 | -2.26132 | 289 ft | 7 kts | 308° |
| 2026-04-30 20:44 | 52.51519 | -2.26277 | 285 ft | 7 kts | 274° |
| 2026-04-30 20:44 | 52.51523 | -2.26361 | 284 ft | 7 kts | 274° |
| 2026-04-30 20:44 | 52.51546 | -2.26531 | 288 ft | 17 kts | 262° |
| 2026-04-30 20:45 | 52.51578 | -2.26877 | 293 ft | 0 kts | 228° |
| 2026-04-30 20:45 | 52.51586 | -2.26864 | 290 ft | 2 kts | 227° |
| 2026-04-30 20:46 | 52.51703 | -2.26975 | 274 ft | 23 kts | 17° |
| 2026-04-30 20:46 | 52.51732 | -2.26938 | 274 ft | 11 kts | 60° |
| 2026-04-30 20:47 | 52.51734 | -2.26912 | 275 ft | 0 kts | 97° |
| 2026-04-30 20:47 | 52.51730 | -2.26850 | 277 ft | 33 kts | 96° |
| 2026-04-30 20:48 | 52.51532 | -2.24380 | 864 ft | 146 kts | 103° |
| 2026-04-30 20:48 | 52.51197 | -2.22704 | 1712 ft | 165 kts | 126° |
| 2026-04-30 20:48 | 52.50243 | -2.21881 | 2097 ft | 191 kts | 201° |
| 2026-04-30 20:48 | 52.49973 | -2.24227 | 1651 ft | 227 kts | 277° |
| 2026-04-30 20:49 | 52.50359 | -2.26655 | 1383 ft | 220 kts | 282° |
| 2026-04-30 20:49 | 52.50848 | -2.28930 | 1247 ft | 205 kts | 302° |
| 2026-04-30 20:49 | 52.51892 | -2.30169 | 1077 ft | 177 kts | 5° |
| 2026-04-30 20:50 | 52.52442 | -2.27584 | 487 ft | 137 kts | 115° |